sensor_id;sensor_type;location;lat;lon;timestamp;temperature;humidity
38938;DHT22;24727;51.974;20.868;2023-02-21T00:00:10;7.80;1.00
38938;DHT22;24727;51.974;20.868;2023-02-21T00:02:55;8.00;1.00
38938;DHT22;24727;51.974;20.868;2023-02-21T00:05:39;8.00;1.00
38938;DHT22;24727;51.974;20.868;2023-02-21T00:08:24;8.00;1.00
38938;DHT22;24727;51.974;20.868;2023-02-21T00:11:08;7.90;1.00
38938;DHT22;24727;51.974;20.868;2023-02-21T00:13:53;7.90;1.00
38938;DHT22;24727;51.974;20.868;2023-02-21T00:16:37;7.90;1.00
38938;DHT22;24727;51.974;20.868;2023-02-21T00:19:21;7.90;1.00
38938;DHT22;24727;51.974;20.868;2023-02-21T00:22:07;7.90;1.00
38938;DHT22;24727;51.974;20.868;2023-02-21T00:24:54;7.90;1.00
38938;DHT22;24727;51.974;20.868;2023-02-21T00:27:39;7.90;1.00
38938;DHT22;24727;51.974;20.868;2023-02-21T00:30:24;7.80;1.00
38938;DHT22;24727;51.974;20.868;2023-02-21T00:33:09;7.80;1.00
38938;DHT22;24727;51.974;20.868;2023-02-21T00:35:54;7.70;1.00
38938;DHT22;24727;51.974;20.868;2023-02-21T00:38:39;7.70;1.00
38938;DHT22;24727;51.974;20.868;2023-02-21T00:41:23;7.70;1.00
38938;DHT22;24727;51.974;20.868;2023-02-21T00:44:08;7.80;1.00
38938;DHT22;24727;51.974;20.868;2023-02-21T00:46:52;8.00;1.00
38938;DHT22;24727;51.974;20.868;2023-02-21T00:49:37;7.90;1.00
38938;DHT22;24727;51.974;20.868;2023-02-21T00:52:22;7.80;1.00
38938;DHT22;24727;51.974;20.868;2023-02-21T00:55:07;7.80;1.00
38938;DHT22;24727;51.974;20.868;2023-02-21T00:57:53;8.00;1.00
38938;DHT22;24727;51.974;20.868;2023-02-21T01:00:38;7.90;1.00
38938;DHT22;24727;51.974;20.868;2023-02-21T01:03:23;7.90;1.00
38938;DHT22;24727;51.974;20.868;2023-02-21T01:06:11;7.80;1.00
38938;DHT22;24727;51.974;20.868;2023-02-21T01:08:55;7.70;1.00
38938;DHT22;24727;51.974;20.868;2023-02-21T01:11:40;7.70;1.00
38938;DHT22;24727;51.974;20.868;2023-02-21T01:14:26;7.70;1.00
38938;DHT22;24727;51.974;20.868;2023-02-21T01:17:10;7.60;1.00
38938;DHT22;24727;51.974;20.868;2023-02-21T01:19:54;7.70;1.00
38938;DHT22;24727;51.974;20.868;2023-02-21T01:22:39;7.70;1.00
38938;DHT22;24727;51.974;20.868;2023-02-21T01:25:23;7.70;1.00
38938;DHT22;24727;51.974;20.868;2023-02-21T01:28:07;7.60;1.00
38938;DHT22;24727;51.974;20.868;2023-02-21T01:30:53;7.60;1.00
38938;DHT22;24727;51.974;20.868;2023-02-21T01:33:40;7.60;1.00
38938;DHT22;24727;51.974;20.868;2023-02-21T01:36:25;7.60;1.00
38938;DHT22;24727;51.974;20.868;2023-02-21T01:39:10;7.50;1.00
38938;DHT22;24727;51.974;20.868;2023-02-21T01:41:55;7.50;1.00
38938;DHT22;24727;51.974;20.868;2023-02-21T01:44:43;7.50;1.00
38938;DHT22;24727;51.974;20.868;2023-02-21T01:47:28;7.60;1.00
38938;DHT22;24727;51.974;20.868;2023-02-21T01:50:23;7.60;1.00
38938;DHT22;24727;51.974;20.868;2023-02-21T01:53:21;7.70;1.00
38938;DHT22;24727;51.974;20.868;2023-02-21T01:56:08;7.80;1.00
38938;DHT22;24727;51.974;20.868;2023-02-21T01:58:55;8.00;1.00
38938;DHT22;24727;51.974;20.868;2023-02-21T02:01:54;8.10;1.00
38938;DHT22;24727;51.974;20.868;2023-02-21T02:04:42;8.10;1.00
38938;DHT22;24727;51.974;20.868;2023-02-21T02:07:28;8.00;1.00
38938;DHT22;24727;51.974;20.868;2023-02-21T02:10:13;7.80;1.00
38938;DHT22;24727;51.974;20.868;2023-02-21T02:18:54;7.40;1.00
38938;DHT22;24727;51.974;20.868;2023-02-21T02:21:36;7.40;1.00
38938;DHT22;24727;51.974;20.868;2023-02-21T02:24:31;7.40;1.00
38938;DHT22;24727;51.974;20.868;2023-02-21T02:41:18;7.40;1.00
38938;DHT22;24727;51.974;20.868;2023-02-21T02:43:52;7.50;1.00
38938;DHT22;24727;51.974;20.868;2023-02-21T02:46:26;7.40;1.00
38938;DHT22;24727;51.974;20.868;2023-02-21T02:49:00;7.50;1.00
38938;DHT22;24727;51.974;20.868;2023-02-21T02:51:27;7.50;1.00
38938;DHT22;24727;51.974;20.868;2023-02-21T02:53:54;7.50;1.00
38938;DHT22;24727;51.974;20.868;2023-02-21T02:56:20;7.50;1.00
38938;DHT22;24727;51.974;20.868;2023-02-21T02:59:07;7.60;1.00
38938;DHT22;24727;51.974;20.868;2023-02-21T03:01:51;7.60;1.00
38938;DHT22;24727;51.974;20.868;2023-02-21T03:12:50;7.40;1.00
38938;DHT22;24727;51.974;20.868;2023-02-21T03:15:39;7.50;1.00
38938;DHT22;24727;51.974;20.868;2023-02-21T03:18:43;7.40;1.00
38938;DHT22;24727;51.974;20.868;2023-02-21T03:21:17;7.30;1.00
38938;DHT22;24727;51.974;20.868;2023-02-21T03:23:47;7.30;1.00
38938;DHT22;24727;51.974;20.868;2023-02-21T03:26:16;7.30;1.00
38938;DHT22;24727;51.974;20.868;2023-02-21T03:28:43;7.30;1.00
38938;DHT22;24727;51.974;20.868;2023-02-21T03:31:11;7.30;1.00
38938;DHT22;24727;51.974;20.868;2023-02-21T03:33:38;7.30;1.00
38938;DHT22;24727;51.974;20.868;2023-02-21T03:36:07;7.30;1.00
38938;DHT22;24727;51.974;20.868;2023-02-21T03:38:34;7.30;1.00
38938;DHT22;24727;51.974;20.868;2023-02-21T03:41:02;7.30;1.00
38938;DHT22;24727;51.974;20.868;2023-02-21T03:43:29;7.30;1.00
38938;DHT22;24727;51.974;20.868;2023-02-21T03:45:55;7.30;1.00
38938;DHT22;24727;51.974;20.868;2023-02-21T03:48:20;7.30;1.00
38938;DHT22;24727;51.974;20.868;2023-02-21T03:50:46;7.30;1.00
38938;DHT22;24727;51.974;20.868;2023-02-21T03:53:13;7.20;1.00
38938;DHT22;24727;51.974;20.868;2023-02-21T03:55:40;7.30;1.00
38938;DHT22;24727;51.974;20.868;2023-02-21T03:58:05;7.30;1.00
38938;DHT22;24727;51.974;20.868;2023-02-21T04:00:32;7.30;1.00
38938;DHT22;24727;51.974;20.868;2023-02-21T04:02:57;7.10;1.00
38938;DHT22;24727;51.974;20.868;2023-02-21T04:05:23;7.20;1.00
38938;DHT22;24727;51.974;20.868;2023-02-21T04:07:49;7.20;1.00
38938;DHT22;24727;51.974;20.868;2023-02-21T04:10:17;7.20;1.00
38938;DHT22;24727;51.974;20.868;2023-02-21T04:12:43;7.10;1.00
38938;DHT22;24727;51.974;20.868;2023-02-21T04:15:11;7.20;1.00
38938;DHT22;24727;51.974;20.868;2023-02-21T04:17:37;7.10;1.00
38938;DHT22;24727;51.974;20.868;2023-02-21T04:20:03;7.00;1.00
38938;DHT22;24727;51.974;20.868;2023-02-21T04:22:31;6.90;1.00
38938;DHT22;24727;51.974;20.868;2023-02-21T04:24:57;6.90;1.00
38938;DHT22;24727;51.974;20.868;2023-02-21T04:27:23;6.90;1.00
38938;DHT22;24727;51.974;20.868;2023-02-21T04:29:49;6.80;1.00
38938;DHT22;24727;51.974;20.868;2023-02-21T04:32:15;6.70;1.00
38938;DHT22;24727;51.974;20.868;2023-02-21T04:34:41;6.80;1.00
38938;DHT22;24727;51.974;20.868;2023-02-21T04:37:07;6.80;1.00
38938;DHT22;24727;51.974;20.868;2023-02-21T04:39:33;6.60;1.00
38938;DHT22;24727;51.974;20.868;2023-02-21T04:41:59;6.60;1.00
38938;DHT22;24727;51.974;20.868;2023-02-21T04:44:26;6.70;1.00
38938;DHT22;24727;51.974;20.868;2023-02-21T04:46:52;6.60;1.00
38938;DHT22;24727;51.974;20.868;2023-02-21T04:49:18;6.60;1.00
38938;DHT22;24727;51.974;20.868;2023-02-21T04:51:45;6.60;1.00
38938;DHT22;24727;51.974;20.868;2023-02-21T04:54:11;6.60;1.00
38938;DHT22;24727;51.974;20.868;2023-02-21T04:56:36;6.60;1.00
38938;DHT22;24727;51.974;20.868;2023-02-21T04:59:04;6.50;1.00
38938;DHT22;24727;51.974;20.868;2023-02-21T05:01:30;6.60;1.00
38938;DHT22;24727;51.974;20.868;2023-02-21T05:03:58;6.50;1.00
38938;DHT22;24727;51.974;20.868;2023-02-21T05:06:26;6.50;1.00
38938;DHT22;24727;51.974;20.868;2023-02-21T05:08:53;6.30;1.00
38938;DHT22;24727;51.974;20.868;2023-02-21T05:11:20;6.40;1.00
38938;DHT22;24727;51.974;20.868;2023-02-21T05:13:46;6.40;1.00
38938;DHT22;24727;51.974;20.868;2023-02-21T05:16:12;6.40;1.00
38938;DHT22;24727;51.974;20.868;2023-02-21T05:18:41;6.30;1.00
38938;DHT22;24727;51.974;20.868;2023-02-21T05:21:07;6.30;1.00
38938;DHT22;24727;51.974;20.868;2023-02-21T05:23:34;6.10;1.00
38938;DHT22;24727;51.974;20.868;2023-02-21T05:26:07;6.10;1.00
38938;DHT22;24727;51.974;20.868;2023-02-21T05:28:33;6.20;1.00
38938;DHT22;24727;51.974;20.868;2023-02-21T05:31:00;6.10;1.00
38938;DHT22;24727;51.974;20.868;2023-02-21T05:33:26;6.10;1.00
38938;DHT22;24727;51.974;20.868;2023-02-21T05:35:52;6.00;1.00
38938;DHT22;24727;51.974;20.868;2023-02-21T05:38:21;6.00;1.00
38938;DHT22;24727;51.974;20.868;2023-02-21T05:40:49;5.90;1.00
38938;DHT22;24727;51.974;20.868;2023-02-21T05:43:14;6.00;1.00
38938;DHT22;24727;51.974;20.868;2023-02-21T05:45:41;6.10;1.00
38938;DHT22;24727;51.974;20.868;2023-02-21T05:48:14;6.10;1.00
38938;DHT22;24727;51.974;20.868;2023-02-21T05:50:40;6.10;1.00
38938;DHT22;24727;51.974;20.868;2023-02-21T05:53:07;6.10;1.00
38938;DHT22;24727;51.974;20.868;2023-02-21T05:55:35;6.10;1.00
38938;DHT22;24727;51.974;20.868;2023-02-21T05:58:03;6.10;1.00
38938;DHT22;24727;51.974;20.868;2023-02-21T06:00:30;6.10;1.00
38938;DHT22;24727;51.974;20.868;2023-02-21T06:02:56;6.30;1.00
38938;DHT22;24727;51.974;20.868;2023-02-21T06:05:23;6.30;1.00
38938;DHT22;24727;51.974;20.868;2023-02-21T06:07:49;6.30;1.00
38938;DHT22;24727;51.974;20.868;2023-02-21T06:10:17;6.20;1.00
38938;DHT22;24727;51.974;20.868;2023-02-21T06:12:43;6.20;1.00
38938;DHT22;24727;51.974;20.868;2023-02-21T06:15:10;6.20;1.00
38938;DHT22;24727;51.974;20.868;2023-02-21T06:17:39;6.30;1.00
38938;DHT22;24727;51.974;20.868;2023-02-21T06:20:06;6.40;1.00
38938;DHT22;24727;51.974;20.868;2023-02-21T06:22:33;6.40;1.00
38938;DHT22;24727;51.974;20.868;2023-02-21T06:24:59;6.40;1.00
38938;DHT22;24727;51.974;20.868;2023-02-21T06:27:25;6.40;1.00
38938;DHT22;24727;51.974;20.868;2023-02-21T06:29:51;6.40;1.00
38938;DHT22;24727;51.974;20.868;2023-02-21T06:32:17;6.50;1.00
38938;DHT22;24727;51.974;20.868;2023-02-21T06:34:43;6.50;1.00
38938;DHT22;24727;51.974;20.868;2023-02-21T06:37:10;6.50;1.00
38938;DHT22;24727;51.974;20.868;2023-02-21T06:39:38;6.50;1.00
38938;DHT22;24727;51.974;20.868;2023-02-21T06:42:04;6.50;1.00
38938;DHT22;24727;51.974;20.868;2023-02-21T06:44:31;6.50;1.00
38938;DHT22;24727;51.974;20.868;2023-02-21T06:46:57;6.50;1.00
38938;DHT22;24727;51.974;20.868;2023-02-21T06:49:23;6.50;1.00
38938;DHT22;24727;51.974;20.868;2023-02-21T06:51:50;6.60;1.00
38938;DHT22;24727;51.974;20.868;2023-02-21T06:54:15;6.60;1.00
38938;DHT22;24727;51.974;20.868;2023-02-21T06:56:42;6.60;1.00
38938;DHT22;24727;51.974;20.868;2023-02-21T06:59:09;6.70;1.00
38938;DHT22;24727;51.974;20.868;2023-02-21T07:01:35;6.70;1.00
38938;DHT22;24727;51.974;20.868;2023-02-21T07:04:01;6.70;1.00
38938;DHT22;24727;51.974;20.868;2023-02-21T07:06:28;6.80;1.00
38938;DHT22;24727;51.974;20.868;2023-02-21T07:08:53;6.80;1.00
38938;DHT22;24727;51.974;20.868;2023-02-21T07:11:20;6.80;1.00
38938;DHT22;24727;51.974;20.868;2023-02-21T07:13:52;6.70;1.00
38938;DHT22;24727;51.974;20.868;2023-02-21T07:16:19;6.80;1.00
38938;DHT22;24727;51.974;20.868;2023-02-21T07:18:45;6.80;1.00
38938;DHT22;24727;51.974;20.868;2023-02-21T07:21:12;6.70;1.00
38938;DHT22;24727;51.974;20.868;2023-02-21T07:23:42;6.80;1.00
38938;DHT22;24727;51.974;20.868;2023-02-21T07:26:08;6.80;1.00
38938;DHT22;24727;51.974;20.868;2023-02-21T07:28:34;6.90;1.00
38938;DHT22;24727;51.974;20.868;2023-02-21T07:31:00;7.00;1.00
38938;DHT22;24727;51.974;20.868;2023-02-21T07:33:26;7.00;1.00
38938;DHT22;24727;51.974;20.868;2023-02-21T07:35:52;7.00;1.00
38938;DHT22;24727;51.974;20.868;2023-02-21T07:38:30;7.00;1.00
38938;DHT22;24727;51.974;20.868;2023-02-21T07:40:59;7.00;1.00
38938;DHT22;24727;51.974;20.868;2023-02-21T07:43:28;7.10;1.00
38938;DHT22;24727;51.974;20.868;2023-02-21T07:45:56;7.00;1.00
38938;DHT22;24727;51.974;20.868;2023-02-21T07:48:22;6.90;1.00
38938;DHT22;24727;51.974;20.868;2023-02-21T07:50:49;6.90;1.00
38938;DHT22;24727;51.974;20.868;2023-02-21T07:53:16;6.90;1.00
38938;DHT22;24727;51.974;20.868;2023-02-21T07:55:42;6.80;1.00
38938;DHT22;24727;51.974;20.868;2023-02-21T07:58:08;6.60;1.00
38938;DHT22;24727;51.974;20.868;2023-02-21T08:00:36;6.60;1.00
38938;DHT22;24727;51.974;20.868;2023-02-21T08:03:01;6.70;1.00
38938;DHT22;24727;51.974;20.868;2023-02-21T08:05:27;6.70;1.00
38938;DHT22;24727;51.974;20.868;2023-02-21T08:07:53;6.70;1.00
38938;DHT22;24727;51.974;20.868;2023-02-21T08:10:25;6.80;1.00
38938;DHT22;24727;51.974;20.868;2023-02-21T08:12:52;6.80;1.00
38938;DHT22;24727;51.974;20.868;2023-02-21T08:15:18;6.70;1.00
38938;DHT22;24727;51.974;20.868;2023-02-21T08:17:47;6.70;1.00
38938;DHT22;24727;51.974;20.868;2023-02-21T08:20:16;6.70;1.00
38938;DHT22;24727;51.974;20.868;2023-02-21T08:22:43;6.70;1.00
38938;DHT22;24727;51.974;20.868;2023-02-21T08:25:12;6.70;1.00
38938;DHT22;24727;51.974;20.868;2023-02-21T08:27:42;6.70;1.00
38938;DHT22;24727;51.974;20.868;2023-02-21T08:30:10;6.70;1.00
38938;DHT22;24727;51.974;20.868;2023-02-21T08:32:36;6.60;1.00
38938;DHT22;24727;51.974;20.868;2023-02-21T08:35:04;6.70;1.00
38938;DHT22;24727;51.974;20.868;2023-02-21T08:37:32;6.70;1.00
38938;DHT22;24727;51.974;20.868;2023-02-21T08:40:03;6.70;1.00
38938;DHT22;24727;51.974;20.868;2023-02-21T08:42:30;6.60;1.00
38938;DHT22;24727;51.974;20.868;2023-02-21T08:44:56;6.60;1.00
38938;DHT22;24727;51.974;20.868;2023-02-21T08:47:22;6.70;1.00
38938;DHT22;24727;51.974;20.868;2023-02-21T08:49:48;6.70;1.00
38938;DHT22;24727;51.974;20.868;2023-02-21T08:52:15;6.80;1.00
38938;DHT22;24727;51.974;20.868;2023-02-21T08:54:43;6.70;1.00
38938;DHT22;24727;51.974;20.868;2023-02-21T08:57:09;6.70;1.00
38938;DHT22;24727;51.974;20.868;2023-02-21T08:59:39;6.60;1.00
38938;DHT22;24727;51.974;20.868;2023-02-21T09:02:17;6.60;1.00
38938;DHT22;24727;51.974;20.868;2023-02-21T09:04:44;6.60;1.00
38938;DHT22;24727;51.974;20.868;2023-02-21T09:07:16;6.60;1.00
38938;DHT22;24727;51.974;20.868;2023-02-21T09:09:43;6.60;1.00
38938;DHT22;24727;51.974;20.868;2023-02-21T09:12:09;6.60;1.00
38938;DHT22;24727;51.974;20.868;2023-02-21T09:14:35;6.60;1.00
38938;DHT22;24727;51.974;20.868;2023-02-21T09:17:04;6.70;1.00
38938;DHT22;24727;51.974;20.868;2023-02-21T09:19:30;6.70;1.00
38938;DHT22;24727;51.974;20.868;2023-02-21T09:21:57;6.70;1.00
38938;DHT22;24727;51.974;20.868;2023-02-21T09:24:24;6.80;1.00
38938;DHT22;24727;51.974;20.868;2023-02-21T09:26:54;6.90;1.00
38938;DHT22;24727;51.974;20.868;2023-02-21T09:29:25;7.00;1.00
38938;DHT22;24727;51.974;20.868;2023-02-21T09:31:51;7.00;1.00
38938;DHT22;24727;51.974;20.868;2023-02-21T09:34:18;7.00;1.00
38938;DHT22;24727;51.974;20.868;2023-02-21T09:36:44;7.10;1.00
38938;DHT22;24727;51.974;20.868;2023-02-21T09:39:12;7.20;1.00
38938;DHT22;24727;51.974;20.868;2023-02-21T09:41:39;7.30;1.00
38938;DHT22;24727;51.974;20.868;2023-02-21T09:44:28;7.40;1.00
38938;DHT22;24727;51.974;20.868;2023-02-21T09:47:04;7.40;1.00
38938;DHT22;24727;51.974;20.868;2023-02-21T09:49:38;7.60;1.00
38938;DHT22;24727;51.974;20.868;2023-02-21T09:52:11;7.60;1.00
38938;DHT22;24727;51.974;20.868;2023-02-21T09:54:46;7.50;1.00
38938;DHT22;24727;51.974;20.868;2023-02-21T09:57:17;7.50;1.00
38938;DHT22;24727;51.974;20.868;2023-02-21T09:59:44;7.60;1.00
38938;DHT22;24727;51.974;20.868;2023-02-21T10:02:28;7.70;1.00
38938;DHT22;24727;51.974;20.868;2023-02-21T10:05:15;7.60;1.00
38938;DHT22;24727;51.974;20.868;2023-02-21T10:07:44;7.70;1.00
38938;DHT22;24727;51.974;20.868;2023-02-21T10:10:34;7.70;1.00
38938;DHT22;24727;51.974;20.868;2023-02-21T10:16:01;7.70;1.00
38938;DHT22;24727;51.974;20.868;2023-02-21T10:18:46;7.50;1.00
38938;DHT22;24727;51.974;20.868;2023-02-21T10:23:52;7.80;1.00
38938;DHT22;24727;51.974;20.868;2023-02-21T10:26:27;7.70;1.00
38938;DHT22;24727;51.974;20.868;2023-02-21T10:28:54;7.50;1.00
38938;DHT22;24727;51.974;20.868;2023-02-21T10:31:41;7.70;1.00
38938;DHT22;24727;51.974;20.868;2023-02-21T10:34:27;7.60;1.00
38938;DHT22;24727;51.974;20.868;2023-02-21T10:36:55;7.50;1.00
38938;DHT22;24727;51.974;20.868;2023-02-21T10:39:43;7.50;1.00
38938;DHT22;24727;51.974;20.868;2023-02-21T10:42:25;7.80;1.00
38938;DHT22;24727;51.974;20.868;2023-02-21T10:44:54;8.00;1.00
38938;DHT22;24727;51.974;20.868;2023-02-21T10:50:09;7.80;1.00
38938;DHT22;24727;51.974;20.868;2023-02-21T10:52:47;7.80;1.00
38938;DHT22;24727;51.974;20.868;2023-02-21T10:55:20;7.70;1.00
38938;DHT22;24727;51.974;20.868;2023-02-21T10:57:53;7.70;1.00
38938;DHT22;24727;51.974;20.868;2023-02-21T11:00:34;7.90;1.00
38938;DHT22;24727;51.974;20.868;2023-02-21T11:03:23;7.80;1.00
38938;DHT22;24727;51.974;20.868;2023-02-21T11:05:54;7.80;1.00
38938;DHT22;24727;51.974;20.868;2023-02-21T11:08:38;8.10;1.00
38938;DHT22;24727;51.974;20.868;2023-02-21T11:11:05;8.30;1.00
38938;DHT22;24727;51.974;20.868;2023-02-21T11:13:33;8.10;1.00
38938;DHT22;24727;51.974;20.868;2023-02-21T11:16:26;8.20;1.00
38938;DHT22;24727;51.974;20.868;2023-02-21T11:19:06;8.00;1.00
38938;DHT22;24727;51.974;20.868;2023-02-21T11:21:33;7.80;1.00
38938;DHT22;24727;51.974;20.868;2023-02-21T11:24:05;8.00;1.00
38938;DHT22;24727;51.974;20.868;2023-02-21T11:26:44;7.80;1.00
38938;DHT22;24727;51.974;20.868;2023-02-21T11:29:15;8.00;1.00
38938;DHT22;24727;51.974;20.868;2023-02-21T11:31:42;8.20;1.00
38938;DHT22;24727;51.974;20.868;2023-02-21T11:34:12;8.10;1.00
38938;DHT22;24727;51.974;20.868;2023-02-21T11:36:41;8.00;1.00
38938;DHT22;24727;51.974;20.868;2023-02-21T11:39:16;7.80;1.00
38938;DHT22;24727;51.974;20.868;2023-02-21T11:41:51;7.80;1.00
38938;DHT22;24727;51.974;20.868;2023-02-21T11:44:32;7.90;1.00
38938;DHT22;24727;51.974;20.868;2023-02-21T11:52:19;7.90;1.00
38938;DHT22;24727;51.974;20.868;2023-02-21T11:54:48;7.90;1.00
38938;DHT22;24727;51.974;20.868;2023-02-21T11:57:38;7.90;1.00
38938;DHT22;24727;51.974;20.868;2023-02-21T12:02:53;7.90;1.00
38938;DHT22;24727;51.974;20.868;2023-02-21T12:08:43;7.70;1.00
38938;DHT22;24727;51.974;20.868;2023-02-21T12:14:32;7.20;1.00
38938;DHT22;24727;51.974;20.868;2023-02-21T12:20:29;7.00;1.00
38938;DHT22;24727;51.974;20.868;2023-02-21T12:23:11;6.90;1.00
38938;DHT22;24727;51.974;20.868;2023-02-21T12:39:42;6.90;1.00
38938;DHT22;24727;51.974;20.868;2023-02-21T12:42:35;6.90;1.00
38938;DHT22;24727;51.974;20.868;2023-02-21T12:54:05;6.90;1.00
38938;DHT22;24727;51.974;20.868;2023-02-21T12:56:59;7.00;1.00
38938;DHT22;24727;51.974;20.868;2023-02-21T12:59:32;7.20;1.00
38938;DHT22;24727;51.974;20.868;2023-02-21T13:02:08;7.20;1.00
38938;DHT22;24727;51.974;20.868;2023-02-21T13:04:49;7.30;1.00
38938;DHT22;24727;51.974;20.868;2023-02-21T13:07:31;7.30;1.00
38938;DHT22;24727;51.974;20.868;2023-02-21T13:10:25;7.20;1.00
38938;DHT22;24727;51.974;20.868;2023-02-21T13:15:29;7.00;1.00
38938;DHT22;24727;51.974;20.868;2023-02-21T13:18:15;6.90;1.00
38938;DHT22;24727;51.974;20.868;2023-02-21T13:20:48;6.90;1.00
38938;DHT22;24727;51.974;20.868;2023-02-21T13:23:35;6.90;1.00
38938;DHT22;24727;51.974;20.868;2023-02-21T13:26:49;6.80;1.00
38938;DHT22;24727;51.974;20.868;2023-02-21T13:29:27;6.70;1.00
38938;DHT22;24727;51.974;20.868;2023-02-21T13:32:14;6.60;1.00
38938;DHT22;24727;51.974;20.868;2023-02-21T13:34:53;6.70;1.00
38938;DHT22;24727;51.974;20.868;2023-02-21T13:37:22;6.70;1.00
38938;DHT22;24727;51.974;20.868;2023-02-21T13:40:21;6.80;1.00
38938;DHT22;24727;51.974;20.868;2023-02-21T13:43:03;6.80;1.00
38938;DHT22;24727;51.974;20.868;2023-02-21T13:45:30;6.90;1.00
38938;DHT22;24727;51.974;20.868;2023-02-21T13:55:34;6.90;1.00
38938;DHT22;24727;51.974;20.868;2023-02-21T14:06:14;7.00;1.00
38938;DHT22;24727;51.974;20.868;2023-02-21T14:13:40;6.90;1.00
38938;DHT22;24727;51.974;20.868;2023-02-21T14:21:46;6.90;1.00
38938;DHT22;24727;51.974;20.868;2023-02-21T14:24:22;7.00;1.00
38938;DHT22;24727;51.974;20.868;2023-02-21T14:37:03;7.00;1.00
38938;DHT22;24727;51.974;20.868;2023-02-21T14:39:36;7.00;1.00
38938;DHT22;24727;51.974;20.868;2023-02-21T14:45:40;7.00;1.00
38938;DHT22;24727;51.974;20.868;2023-02-21T14:53:23;7.00;1.00
38938;DHT22;24727;51.974;20.868;2023-02-21T15:01:38;7.00;1.00
38938;DHT22;24727;51.974;20.868;2023-02-21T15:07:19;7.00;1.00
38938;DHT22;24727;51.974;20.868;2023-02-21T15:10:16;7.00;1.00
38938;DHT22;24727;51.974;20.868;2023-02-21T15:12:49;7.00;1.00
38938;DHT22;24727;51.974;20.868;2023-02-21T15:15:41;7.00;1.00
38938;DHT22;24727;51.974;20.868;2023-02-21T15:18:10;6.90;1.00
38938;DHT22;24727;51.974;20.868;2023-02-21T15:20:39;6.90;1.00
38938;DHT22;24727;51.974;20.868;2023-02-21T15:23:16;6.90;1.00
38938;DHT22;24727;51.974;20.868;2023-02-21T15:25:53;6.90;1.00
38938;DHT22;24727;51.974;20.868;2023-02-21T15:28:24;6.90;1.00
38938;DHT22;24727;51.974;20.868;2023-02-21T15:31:02;6.90;1.00
38938;DHT22;24727;51.974;20.868;2023-02-21T15:33:37;6.80;1.00
38938;DHT22;24727;51.974;20.868;2023-02-21T15:36:04;6.80;1.00
38938;DHT22;24727;51.974;20.868;2023-02-21T15:38:41;6.80;1.00
38938;DHT22;24727;51.974;20.868;2023-02-21T15:41:31;6.80;1.00
38938;DHT22;24727;51.974;20.868;2023-02-21T15:44:13;6.80;1.00
38938;DHT22;24727;51.974;20.868;2023-02-21T15:47:01;6.80;1.00
38938;DHT22;24727;51.974;20.868;2023-02-21T15:52:48;6.80;1.00
38938;DHT22;24727;51.974;20.868;2023-02-21T16:00:39;6.80;1.00
38938;DHT22;24727;51.974;20.868;2023-02-21T16:06:23;6.70;1.00
38938;DHT22;24727;51.974;20.868;2023-02-21T16:08:58;6.70;1.00
38938;DHT22;24727;51.974;20.868;2023-02-21T16:11:42;6.70;1.00
38938;DHT22;24727;51.974;20.868;2023-02-21T16:14:21;6.70;1.00
38938;DHT22;24727;51.974;20.868;2023-02-21T16:16:58;6.70;1.00
38938;DHT22;24727;51.974;20.868;2023-02-21T16:19:31;6.80;1.00
38938;DHT22;24727;51.974;20.868;2023-02-21T16:25:13;6.60;1.00
38938;DHT22;24727;51.974;20.868;2023-02-21T16:27:51;6.70;1.00
38938;DHT22;24727;51.974;20.868;2023-02-21T16:30:28;6.70;1.00
38938;DHT22;24727;51.974;20.868;2023-02-21T16:33:00;6.70;1.00
38938;DHT22;24727;51.974;20.868;2023-02-21T16:35:28;6.60;1.00
38938;DHT22;24727;51.974;20.868;2023-02-21T16:37:57;6.70;1.00
38938;DHT22;24727;51.974;20.868;2023-02-21T16:40:34;6.60;1.00
38938;DHT22;24727;51.974;20.868;2023-02-21T16:43:03;6.60;1.00
38938;DHT22;24727;51.974;20.868;2023-02-21T16:45:30;6.60;1.00
38938;DHT22;24727;51.974;20.868;2023-02-21T16:48:01;6.70;1.00
38938;DHT22;24727;51.974;20.868;2023-02-21T16:50:31;6.60;1.00
38938;DHT22;24727;51.974;20.868;2023-02-21T16:52:59;6.60;1.00
38938;DHT22;24727;51.974;20.868;2023-02-21T16:55:28;6.70;1.00
38938;DHT22;24727;51.974;20.868;2023-02-21T16:58:00;6.70;1.00
38938;DHT22;24727;51.974;20.868;2023-02-21T17:00:27;6.60;1.00
38938;DHT22;24727;51.974;20.868;2023-02-21T17:02:55;6.60;1.00
38938;DHT22;24727;51.974;20.868;2023-02-21T17:05:22;6.60;1.00
38938;DHT22;24727;51.974;20.868;2023-02-21T17:07:55;6.50;1.00
38938;DHT22;24727;51.974;20.868;2023-02-21T17:10:23;6.60;1.00
38938;DHT22;24727;51.974;20.868;2023-02-21T17:12:49;6.50;1.00
38938;DHT22;24727;51.974;20.868;2023-02-21T17:15:15;6.60;1.00
38938;DHT22;24727;51.974;20.868;2023-02-21T17:17:42;6.60;1.00
38938;DHT22;24727;51.974;20.868;2023-02-21T17:20:15;6.60;1.00
38938;DHT22;24727;51.974;20.868;2023-02-21T17:22:41;6.50;1.00
38938;DHT22;24727;51.974;20.868;2023-02-21T17:25:08;6.50;1.00
38938;DHT22;24727;51.974;20.868;2023-02-21T17:27:34;6.60;1.00
38938;DHT22;24727;51.974;20.868;2023-02-21T17:30:04;6.50;1.00
38938;DHT22;24727;51.974;20.868;2023-02-21T17:32:32;6.60;1.00
38938;DHT22;24727;51.974;20.868;2023-02-21T17:34:59;6.60;1.00
38938;DHT22;24727;51.974;20.868;2023-02-21T17:37:25;6.50;1.00
38938;DHT22;24727;51.974;20.868;2023-02-21T17:39:53;6.60;1.00
38938;DHT22;24727;51.974;20.868;2023-02-21T17:42:20;6.50;1.00
38938;DHT22;24727;51.974;20.868;2023-02-21T17:44:47;6.60;1.00
38938;DHT22;24727;51.974;20.868;2023-02-21T17:47:20;6.60;1.00
38938;DHT22;24727;51.974;20.868;2023-02-21T17:49:49;6.60;1.00
38938;DHT22;24727;51.974;20.868;2023-02-21T17:52:16;6.50;1.00
38938;DHT22;24727;51.974;20.868;2023-02-21T17:54:42;6.50;1.00
38938;DHT22;24727;51.974;20.868;2023-02-21T17:57:09;6.50;1.00
38938;DHT22;24727;51.974;20.868;2023-02-21T17:59:37;6.40;1.00
38938;DHT22;24727;51.974;20.868;2023-02-21T18:02:05;6.40;1.00
38938;DHT22;24727;51.974;20.868;2023-02-21T18:04:33;6.50;1.00
38938;DHT22;24727;51.974;20.868;2023-02-21T18:07:00;6.50;1.00
38938;DHT22;24727;51.974;20.868;2023-02-21T18:09:26;6.50;1.00
38938;DHT22;24727;51.974;20.868;2023-02-21T18:11:54;6.40;1.00
38938;DHT22;24727;51.974;20.868;2023-02-21T18:14:22;6.40;1.00
38938;DHT22;24727;51.974;20.868;2023-02-21T18:16:51;6.30;1.00
38938;DHT22;24727;51.974;20.868;2023-02-21T18:19:22;6.40;1.00
38938;DHT22;24727;51.974;20.868;2023-02-21T18:21:49;6.40;1.00
38938;DHT22;24727;51.974;20.868;2023-02-21T18:24:17;6.40;1.00
38938;DHT22;24727;51.974;20.868;2023-02-21T18:26:44;6.30;1.00
38938;DHT22;24727;51.974;20.868;2023-02-21T18:29:12;6.30;1.00
38938;DHT22;24727;51.974;20.868;2023-02-21T18:31:40;6.40;1.00
38938;DHT22;24727;51.974;20.868;2023-02-21T18:34:06;6.30;1.00
38938;DHT22;24727;51.974;20.868;2023-02-21T18:36:33;6.30;1.00
38938;DHT22;24727;51.974;20.868;2023-02-21T18:38:59;6.40;1.00
38938;DHT22;24727;51.974;20.868;2023-02-21T18:41:25;6.40;1.00
38938;DHT22;24727;51.974;20.868;2023-02-21T18:43:52;6.40;1.00
38938;DHT22;24727;51.974;20.868;2023-02-21T18:46:20;6.40;1.00
38938;DHT22;24727;51.974;20.868;2023-02-21T18:48:48;6.30;1.00